Aviation Digital Data Service (ADDS)

Output produced by TAFs form (1215 UTC 08 February 2016)
found at http://www.aviationweather.gov/adds/tafs/
 
KMRB 081120Z 0812/0912 VRB03KT 5SM BR SCT250 
     FM081400 10005KT P6SM BKN200 
     FM082100 12005KT 5SM -RA OVC020 
     FM082300 12005KT 3/4SM -SN OVC009 
     FM090200 08005KT 1/2SM SN OVC005